Tropical Cyclones
[Index]
Main Index Home Page Stock Weather Photos Extreme Storms Discussion Storm News and Storm Chasing Reports Tropical Cyclones / Hurricanes / Typhoons Weather Data and Links Wild Fires / Bushfires Weather Observation Techniques Weather Picture Catalogue Tornado Pictures and Reports Stock Video Footage and DVDs for sale
Season 1966-1967 Tropical Cyclone BERYL Track Map
Season 1966-1967 Summaries: [BoM-AU] [JTWC-AU] [JTWC-SIO] [JTWC-SPAC] [JTWC-SH]
<<- Previous TC | JTWC 1966-1967 Season | Next TC ->>

click for intensity scale information  Lat/long Grid: Show Hide

 Date Labels: Show Hide

Joint Typhoon Warning Centre Cyclone Data

Name: BERYL
Number: 618 / 6703

21 Nov 1966 18:00 UTC to 29 Nov 1966 12:00 UTC

    date/time    lat    long     hPa   cat  kts
1966-11-21 18   10.0    91.0                  15          
1966-11-22 00   10.0    91.0                  20          
1966-11-22 06   10.1    90.9                  20          
1966-11-22 12   10.3    90.7                  15          
1966-11-22 18   10.6    90.4                  15          
1966-11-23 00   11.0    90.1                  15          
1966-11-23 06   11.3    89.6                  15          
1966-11-23 12   11.5    89.1                  25          
1966-11-23 18   11.7    88.6                  30          
1966-11-24 00   11.9    88.1                  20          
1966-11-24 06   12.2    87.6                  15          
1966-11-24 12   12.4    87.1                  15          
1966-11-24 18   12.7    86.6                  15          
1966-11-25 00   12.9    86.1                  20          
1966-11-25 06   13.4    85.6                  20          
1966-11-25 12   13.9    85.1                  15          
1966-11-25 18   14.4    84.6                  15          
1966-11-26 00   14.9    84.1                  15          
1966-11-26 06   15.4    83.6                  15          
1966-11-26 12   15.9    83.1                  15          
1966-11-26 18   16.4    82.5                  10          
1966-11-27 00   16.9    82.1                  10          
1966-11-27 06   17.4    81.5                  10          
1966-11-27 12   17.9    80.6                  10          
1966-11-27 18   18.4    79.9                  10          
1966-11-28 00   18.8    79.1                  15          
1966-11-28 06   19.2    78.4                  15          
1966-11-28 12   19.4    77.6                  15          
1966-11-28 18   19.7    76.9                  15          
1966-11-29 00   20.0    76.1                  20          
1966-11-29 06   20.3    75.5                  20          
1966-11-29 12   20.5    75.0                  20          
Winds are 1-min average.

Tropical cyclone tracks developed by Michael Bath using data from the Joint Typhoon Warning Centre Best Tracks and Google Maps.


[Australian Severe Weather index] [Copyright Notice] [Email Contacts] [Search This Site] [Privacy Policy]
Document: tropical_cyclone_beryl.htm Updated: 18 September 2016